createdAt,value
2023-04-17T00:00:17.076Z,15.77
2023-04-17T00:02:45.095Z,15.43
2023-04-17T00:05:12.539Z,15.10
2023-04-17T00:07:39.475Z,16.15
2023-04-17T00:10:08.653Z,14.57
2023-04-17T00:12:36.265Z,14.55
2023-04-17T00:15:03.698Z,14.80
2023-04-17T00:17:30.761Z,13.63
2023-04-17T00:19:57.861Z,13.80
2023-04-17T00:22:24.913Z,12.85
2023-04-17T00:24:51.702Z,12.50
2023-04-17T00:27:18.444Z,12.57
2023-04-17T00:29:45.247Z,12.20
2023-04-17T00:32:12.193Z,11.75
2023-04-17T00:34:40.473Z,11.57
2023-04-17T00:37:07.393Z,11.77
2023-04-17T00:39:34.213Z,11.95
2023-04-17T00:42:01.625Z,12.35
2023-04-17T00:44:28.541Z,12.68
2023-04-17T00:46:56.361Z,14.48
2023-04-17T00:49:25.875Z,13.98
2023-04-17T00:51:53.455Z,14.20
2023-04-17T00:54:22.623Z,12.75
2023-04-17T00:56:51.494Z,11.48
2023-04-17T00:59:18.717Z,12.23
2023-04-17T01:01:46.623Z,11.77
2023-04-17T01:04:13.760Z,11.98
2023-04-17T01:06:41.896Z,12.07
2023-04-17T01:09:09.006Z,11.73
2023-04-17T01:11:36.441Z,12.63
2023-04-17T01:14:03.340Z,12.60
2023-04-17T01:16:30.766Z,12.73
2023-04-17T01:18:57.649Z,12.10
2023-04-17T01:21:25.759Z,11.65
2023-04-17T01:23:53.838Z,10.80
2023-04-17T01:26:26.197Z,11.70
2023-04-17T01:28:55.347Z,12.25
2023-04-17T01:31:22.770Z,11.32
2023-04-17T01:33:51.010Z,12.38
2023-04-17T01:36:18.072Z,11.60
2023-04-17T01:38:45.457Z,11.90
2023-04-17T01:41:12.505Z,11.63
2023-04-17T01:43:42.554Z,11.35
2023-04-17T01:46:09.619Z,11.50
2023-04-17T01:48:36.897Z,10.82
2023-04-17T01:51:03.900Z,12.38
2023-04-17T01:53:31.904Z,12.43
2023-04-17T01:56:00.792Z,11.57
2023-04-17T01:58:29.279Z,12.65
2023-04-17T02:00:56.269Z,12.93
2023-04-17T02:03:24.804Z,12.68
2023-04-17T02:05:53.226Z,13.73
2023-04-17T02:08:20.335Z,12.98
2023-04-17T02:10:47.117Z,14.45
2023-04-17T02:13:14.241Z,12.57
2023-04-17T02:15:41.972Z,13.60
2023-04-17T02:18:09.825Z,12.90
2023-04-17T02:20:38.230Z,13.65
2023-04-17T02:23:06.840Z,13.30
2023-04-17T02:25:34.447Z,14.45
2023-04-17T02:28:01.591Z,13.85
2023-04-17T02:30:28.981Z,13.82
2023-04-17T02:32:57.683Z,13.02
2023-04-17T02:35:29.173Z,15.90
2023-04-17T02:37:57.607Z,14.90
2023-04-17T02:40:24.829Z,16.13
2023-04-17T02:42:58.157Z,15.98
2023-04-17T02:45:25.333Z,16.45
2023-04-17T02:47:52.175Z,17.10
2023-04-17T02:50:20.013Z,16.25
2023-04-17T02:52:57.582Z,15.05
2023-04-17T02:55:27.476Z,16.02
2023-04-17T02:57:54.283Z,16.10
2023-04-17T03:00:22.969Z,15.93
2023-04-17T03:02:50.225Z,16.23
2023-04-17T03:05:20.326Z,16.15
2023-04-17T03:07:47.511Z,14.77
2023-04-17T03:10:15.633Z,15.65
2023-04-17T03:12:44.658Z,15.18
2023-04-17T03:15:13.175Z,14.05
2023-04-17T03:17:40.411Z,13.35
2023-04-17T03:20:08.809Z,12.77
2023-04-17T03:22:36.688Z,14.20
2023-04-17T03:25:05.894Z,14.13
2023-04-17T03:27:43.354Z,13.52
2023-04-17T03:30:10.482Z,14.30
2023-04-17T03:32:38.092Z,14.10
2023-04-17T03:35:05.393Z,13.73
2023-04-17T03:37:33.729Z,13.27
2023-04-17T03:40:01.224Z,14.25
2023-04-17T03:42:28.564Z,12.50
2023-04-17T03:44:56.123Z,12.20
2023-04-17T03:47:24.370Z,12.07
2023-04-17T03:49:51.392Z,12.35
2023-04-17T03:52:18.731Z,10.30
2023-04-17T03:54:50.398Z,10.48
2023-04-17T03:57:17.557Z,11.80
2023-04-17T03:59:44.489Z,12.38
2023-04-17T04:02:11.422Z,12.52
2023-04-17T04:04:39.296Z,12.43
2023-04-17T04:07:11.122Z,13.32
2023-04-17T04:09:38.709Z,13.23
2023-04-17T04:12:06.800Z,12.93
2023-04-17T04:14:41.759Z,12.93
2023-04-17T04:17:09.677Z,13.13
2023-04-17T04:19:37.441Z,15.63
2023-04-17T04:22:06.682Z,15.25
2023-04-17T04:24:40.915Z,17.23
2023-04-17T04:27:08.026Z,16.48
2023-04-17T04:29:37.677Z,16.85
2023-04-17T04:32:09.749Z,17.80
2023-04-17T04:34:42.127Z,18.85
2023-04-17T04:37:09.293Z,18.02
2023-04-17T04:39:39.547Z,18.80
2023-04-17T04:42:10.244Z,18.08
2023-04-17T04:44:50.746Z,18.45
2023-04-17T04:47:20.160Z,18.38
2023-04-17T04:49:49.126Z,19.23
2023-04-17T04:52:20.299Z,20.23
2023-04-17T04:54:48.761Z,20.20
2023-04-17T04:57:15.884Z,20.02
2023-04-17T04:59:45.577Z,20.92
2023-04-17T05:02:25.085Z,19.02
2023-04-17T05:04:53.371Z,20.60
2023-04-17T05:07:20.741Z,20.17
2023-04-17T05:09:47.552Z,19.95
2023-04-17T05:12:16.575Z,18.63
2023-04-17T05:14:44.849Z,17.98
2023-04-17T05:17:12.450Z,18.35
2023-04-17T05:19:39.417Z,20.35
2023-04-17T05:22:09.043Z,19.98
2023-04-17T05:24:43.249Z,18.05
2023-04-17T05:27:10.058Z,18.35
2023-04-17T05:29:37.561Z,19.25
2023-04-17T05:32:04.539Z,19.63
2023-04-17T05:34:49.599Z,18.27
2023-04-17T05:37:19.819Z,18.05
2023-04-17T05:39:46.750Z,17.90
2023-04-17T05:42:13.701Z,19.42
2023-04-17T05:44:40.459Z,18.73
2023-04-17T05:47:07.794Z,18.83
2023-04-17T05:49:34.615Z,17.85
2023-04-17T05:52:01.494Z,18.38
2023-04-17T05:54:30.334Z,19.17
2023-04-17T05:56:58.215Z,17.13
2023-04-17T05:59:27.316Z,17.63
2023-04-17T06:01:54.599Z,18.90
2023-04-17T06:04:22.594Z,16.20
2023-04-17T06:06:50.411Z,16.95
2023-04-17T06:09:17.775Z,17.42
2023-04-17T06:11:44.775Z,18.05
2023-04-17T06:14:12.365Z,16.98
2023-04-17T06:16:39.356Z,18.38
2023-04-17T06:19:09.151Z,19.52
2023-04-17T06:21:36.108Z,18.80
2023-04-17T06:24:03.152Z,18.73
2023-04-17T06:26:30.192Z,18.83
2023-04-17T06:28:57.107Z,18.67
2023-04-17T06:31:25.317Z,18.60
2023-04-17T06:33:52.135Z,16.70
2023-04-17T06:36:24.027Z,15.88
2023-04-17T06:38:56.073Z,16.88
2023-04-17T06:41:23.000Z,16.05
2023-04-17T06:43:49.882Z,15.68
2023-04-17T06:46:16.784Z,16.70
2023-04-17T06:48:43.778Z,14.90
2023-04-17T06:51:10.610Z,15.18
2023-04-17T06:53:37.471Z,14.80
2023-04-17T06:56:04.584Z,15.73
2023-04-17T06:58:31.521Z,14.60
2023-04-17T07:00:58.301Z,13.98
2023-04-17T07:03:25.260Z,13.75
2023-04-17T07:05:52.194Z,14.57
2023-04-17T07:08:22.369Z,14.57
2023-04-17T07:10:49.364Z,14.50
2023-04-17T07:13:16.274Z,14.82
2023-04-17T07:15:43.923Z,14.68
2023-04-17T07:18:11.267Z,12.80
2023-04-17T07:20:38.184Z,14.07
2023-04-17T07:23:04.954Z,13.90
2023-04-17T07:25:31.968Z,13.90
2023-04-17T07:27:58.722Z,13.68
2023-04-17T07:30:25.777Z,12.93
2023-04-17T07:32:52.686Z,12.93
2023-04-17T07:35:19.717Z,14.18
2023-04-17T07:37:46.732Z,14.80
2023-04-17T07:40:14.420Z,14.90
2023-04-17T07:42:41.210Z,15.13
2023-04-17T07:45:08.655Z,15.32
2023-04-17T07:47:35.594Z,15.70
2023-04-17T07:50:03.296Z,15.90
2023-04-17T07:52:30.820Z,16.02
2023-04-17T07:54:57.744Z,15.63
2023-04-17T07:57:26.517Z,15.80
2023-04-17T07:59:53.436Z,16.30
2023-04-17T08:02:22.152Z,14.98
2023-04-17T08:04:49.739Z,15.07
2023-04-17T08:07:18.268Z,15.90
2023-04-17T08:09:45.550Z,15.30
2023-04-17T08:12:12.522Z,14.95
2023-04-17T08:14:40.745Z,16.20
2023-04-17T08:17:07.766Z,15.07
2023-04-17T08:19:35.209Z,14.52
2023-04-17T08:22:04.008Z,14.77
2023-04-17T08:24:31.820Z,15.10
2023-04-17T08:26:58.814Z,15.00
2023-04-17T08:29:26.789Z,13.38
2023-04-17T08:32:03.307Z,13.77
2023-04-17T08:34:39.757Z,12.85
2023-04-17T08:37:06.862Z,12.27
2023-04-17T08:39:33.645Z,10.95
2023-04-17T08:42:02.972Z,11.07
2023-04-17T08:44:30.568Z,10.75
2023-04-17T08:47:00.996Z,10.88
2023-04-17T08:49:35.004Z,10.48
2023-04-17T08:52:05.937Z,9.38
2023-04-17T08:54:35.148Z,9.25
2023-04-17T08:57:03.912Z,8.85
2023-04-17T08:59:34.114Z,9.07
2023-04-17T09:02:05.296Z,8.73
2023-04-17T09:04:38.187Z,8.82
2023-04-17T09:07:06.648Z,7.90
2023-04-17T09:09:49.749Z,8.80
2023-04-17T09:12:17.179Z,8.60
2023-04-17T09:14:44.677Z,8.80
2023-04-17T09:17:11.827Z,7.85
2023-04-17T09:19:58.567Z,7.82
2023-04-17T09:22:25.649Z,8.90
2023-04-17T09:24:52.827Z,9.35
2023-04-17T09:27:24.825Z,8.93
2023-04-17T09:30:03.970Z,8.93
2023-04-17T09:32:32.232Z,10.55
2023-04-17T09:35:01.494Z,9.50
2023-04-17T09:37:51.785Z,9.00
2023-04-17T09:40:23.732Z,8.05
2023-04-17T09:43:02.598Z,7.07
2023-04-17T09:45:35.661Z,6.38
2023-04-17T09:48:07.806Z,6.75
2023-04-17T09:50:36.600Z,5.90
2023-04-17T09:53:06.451Z,4.80
2023-04-17T09:55:36.570Z,4.97
2023-04-17T09:58:06.405Z,4.97
2023-04-17T10:00:33.300Z,4.22
2023-04-17T10:03:00.594Z,3.92
2023-04-17T10:05:29.860Z,3.97
2023-04-17T10:07:57.040Z,3.45
2023-04-17T10:10:33.662Z,3.13
2023-04-17T10:13:08.245Z,3.33
2023-04-17T10:15:38.256Z,2.40
2023-04-17T10:18:25.278Z,2.15
2023-04-17T10:20:54.265Z,2.28
2023-04-17T10:23:34.885Z,2.55
2023-04-17T10:26:27.156Z,3.00
2023-04-17T10:28:55.433Z,3.00
2023-04-17T10:31:25.641Z,3.30
2023-04-17T10:33:55.691Z,2.67
2023-04-17T10:36:37.995Z,3.05
2023-04-17T10:39:15.542Z,2.97
2023-04-17T10:42:07.290Z,3.20
2023-04-17T10:44:34.976Z,3.00
2023-04-17T10:47:14.106Z,3.70
2023-04-17T10:49:48.701Z,3.75
2023-04-17T10:52:43.095Z,3.20
2023-04-17T10:55:22.194Z,3.60
2023-04-17T10:57:58.281Z,3.28
2023-04-17T11:00:33.149Z,3.80
2023-04-17T11:03:02.596Z,3.33
2023-04-17T11:05:31.347Z,3.53
2023-04-17T11:07:59.200Z,3.50
2023-04-17T11:10:26.480Z,3.40
2023-04-17T11:12:55.661Z,2.95
2023-04-17T11:15:30.786Z,2.58
2023-04-17T11:17:58.675Z,2.90
2023-04-17T11:20:27.724Z,3.63
2023-04-17T11:22:54.906Z,3.13
2023-04-17T11:25:23.885Z,3.08
2023-04-17T11:28:01.382Z,3.30
2023-04-17T11:30:31.287Z,3.40
2023-04-17T11:32:59.851Z,3.00
2023-04-17T11:35:37.735Z,3.10
2023-04-17T11:38:20.578Z,3.75
2023-04-17T11:40:55.494Z,3.95
2023-04-17T11:43:23.742Z,4.10
2023-04-17T11:45:52.076Z,3.75
2023-04-17T11:48:24.393Z,2.67
2023-04-17T11:50:58.646Z,3.38
2023-04-17T11:53:26.093Z,3.50
2023-04-17T11:56:15.552Z,3.40
2023-04-17T11:58:53.180Z,3.67
2023-04-17T12:01:25.994Z,3.33
2023-04-17T12:03:54.586Z,4.00
2023-04-17T12:06:22.130Z,4.50
2023-04-17T12:08:53.745Z,5.25
2023-04-17T12:11:31.496Z,4.35
2023-04-17T12:14:00.103Z,5.25
2023-04-17T12:16:27.903Z,5.35
2023-04-17T12:18:55.219Z,5.70
2023-04-17T12:21:23.884Z,5.80
2023-04-17T12:23:51.280Z,5.43
2023-04-17T12:26:21.124Z,5.43
2023-04-17T12:28:48.027Z,3.95
2023-04-17T12:31:14.822Z,2.08
2023-04-17T12:33:41.696Z,2.05
2023-04-17T12:36:09.162Z,2.15
2023-04-17T12:38:36.415Z,2.95
2023-04-17T12:41:03.304Z,2.42
2023-04-17T12:43:33.075Z,2.50
2023-04-17T12:46:00.178Z,2.45
2023-04-17T12:48:27.402Z,2.65
2023-04-17T12:50:54.585Z,2.38
2023-04-17T12:53:21.664Z,2.22
2023-04-17T12:55:48.445Z,3.00
2023-04-17T12:58:15.315Z,2.75
2023-04-17T13:00:44.429Z,2.55
2023-04-17T13:03:12.435Z,2.03
2023-04-17T13:05:39.748Z,2.22
2023-04-17T13:08:06.862Z,2.38
2023-04-17T13:10:34.314Z,1.85
2023-04-17T13:13:02.327Z,2.38
2023-04-17T13:15:29.517Z,2.35
2023-04-17T13:17:56.389Z,2.63
2023-04-17T13:20:23.332Z,2.35
2023-04-17T13:22:50.428Z,2.45
2023-04-17T13:25:17.358Z,2.53
2023-04-17T13:27:44.595Z,2.83
2023-04-17T13:30:11.772Z,2.65
2023-04-17T13:32:40.384Z,2.17
2023-04-17T13:35:09.630Z,1.80
2023-04-17T13:37:37.104Z,1.40
2023-04-17T13:40:05.521Z,1.70
2023-04-17T13:42:32.524Z,2.20
2023-04-17T13:44:59.281Z,2.00
2023-04-17T13:47:26.333Z,1.60
2023-04-17T13:49:53.193Z,1.80
2023-04-17T13:52:20.854Z,2.13
2023-04-17T13:54:48.702Z,2.03
2023-04-17T13:57:18.629Z,1.52
2023-04-17T13:59:45.544Z,1.60
2023-04-17T14:02:12.878Z,1.73
2023-04-17T14:04:39.872Z,1.98
2023-04-17T14:07:07.502Z,1.98
2023-04-17T14:09:34.414Z,2.47
2023-04-17T14:12:02.418Z,2.28
2023-04-17T14:14:29.258Z,2.95
2023-04-17T14:16:56.733Z,2.40
2023-04-17T14:19:24.126Z,2.40
2023-04-17T14:21:50.900Z,2.60
2023-04-17T14:24:17.894Z,2.47
2023-04-17T14:26:45.006Z,2.70
2023-04-17T14:29:13.929Z,2.67
2023-04-17T14:31:41.378Z,2.33
2023-04-17T14:34:08.382Z,2.33
2023-04-17T14:36:35.816Z,2.63
2023-04-17T14:39:03.062Z,3.10
2023-04-17T14:41:33.784Z,3.35
2023-04-17T14:44:01.001Z,2.95
2023-04-17T14:46:28.002Z,2.75
2023-04-17T14:48:56.333Z,2.15
2023-04-17T14:51:27.289Z,2.60
2023-04-17T14:53:54.526Z,3.00
2023-04-17T14:56:24.429Z,3.47
2023-04-17T14:58:51.472Z,4.05
2023-04-17T15:01:18.305Z,4.40
2023-04-17T15:03:48.250Z,4.95
2023-04-17T15:06:17.128Z,4.78
2023-04-17T15:08:45.977Z,4.50
2023-04-17T15:11:13.064Z,4.65
2023-04-17T15:13:40.542Z,3.88
2023-04-17T15:16:09.456Z,4.55
2023-04-17T15:18:36.696Z,4.00
2023-04-17T15:21:03.911Z,4.13
2023-04-17T15:23:30.878Z,4.93
2023-04-17T15:25:58.331Z,4.80
2023-04-17T15:28:25.869Z,4.03
2023-04-17T15:30:52.865Z,4.25
2023-04-17T15:33:19.909Z,4.10
2023-04-17T15:35:46.853Z,5.10
2023-04-17T15:38:14.116Z,4.15
2023-04-17T15:40:40.953Z,4.35
2023-04-17T15:43:07.792Z,4.13
2023-04-17T15:45:34.628Z,4.18
2023-04-17T15:48:01.806Z,4.15
2023-04-17T15:50:28.711Z,4.10
2023-04-17T15:52:56.172Z,4.65
2023-04-17T15:55:23.101Z,4.97
2023-04-17T15:57:50.452Z,4.85
2023-04-17T16:00:17.946Z,5.20
2023-04-17T16:02:48.647Z,5.85
2023-04-17T16:05:16.628Z,5.47
2023-04-17T16:07:44.141Z,5.85
2023-04-17T16:10:14.687Z,5.95
2023-04-17T16:12:43.342Z,6.18
2023-04-17T16:15:11.935Z,5.47
2023-04-17T16:17:39.047Z,6.68
2023-04-17T16:20:06.854Z,7.07
2023-04-17T16:22:33.950Z,8.35
2023-04-17T16:25:01.767Z,8.10
2023-04-17T16:27:29.884Z,8.27
2023-04-17T16:29:56.722Z,8.70
2023-04-17T16:32:25.059Z,10.00
2023-04-17T16:34:52.466Z,10.07
2023-04-17T16:37:19.337Z,9.38
2023-04-17T16:39:46.199Z,9.50
2023-04-17T16:42:13.298Z,9.60
2023-04-17T16:44:40.046Z,9.55
2023-04-17T16:47:13.202Z,7.45
2023-04-17T16:49:40.916Z,6.05
2023-04-17T16:52:08.008Z,6.30
2023-04-17T16:54:34.874Z,7.35
2023-04-17T16:57:01.977Z,7.35
2023-04-17T16:59:29.145Z,10.25
2023-04-17T17:01:56.131Z,6.45
2023-04-17T17:04:23.104Z,5.88
2023-04-17T17:06:49.962Z,8.57
2023-04-17T17:09:16.767Z,6.25
2023-04-17T17:11:43.698Z,14.20
2023-04-17T17:14:10.563Z,12.63
2023-04-17T17:16:37.433Z,6.95
2023-04-17T17:19:04.269Z,6.35
2023-04-17T17:21:31.523Z,5.70
2023-04-17T17:23:58.691Z,7.20
2023-04-17T17:26:25.842Z,7.30
2023-04-17T17:28:53.457Z,6.57
2023-04-17T17:31:21.083Z,7.75
2023-04-17T17:33:54.107Z,7.93
2023-04-17T17:36:23.948Z,8.95
2023-04-17T17:38:55.670Z,8.95
2023-04-17T17:41:23.952Z,9.32
2023-04-17T17:43:50.838Z,10.02
2023-04-17T17:46:19.394Z,10.35
2023-04-17T17:48:46.281Z,9.80
2023-04-17T17:51:13.220Z,11.65
2023-04-17T17:53:41.149Z,14.52
2023-04-17T17:56:08.237Z,10.77
2023-04-17T17:58:35.387Z,11.18
2023-04-17T18:01:02.507Z,10.75
2023-04-17T18:03:29.580Z,10.95
2023-04-17T18:05:56.477Z,11.85
2023-04-17T18:08:23.508Z,12.07
2023-04-17T18:10:50.904Z,11.40
2023-04-17T18:13:17.707Z,11.93
2023-04-17T18:15:44.490Z,11.93
2023-04-17T18:18:11.600Z,11.63
2023-04-17T18:20:39.479Z,12.52
2023-04-17T18:23:06.531Z,12.23
2023-04-17T18:25:35.516Z,12.20
2023-04-17T18:28:03.570Z,12.38
2023-04-17T18:30:30.668Z,13.85
2023-04-17T18:32:57.619Z,14.35
2023-04-17T18:35:24.690Z,12.73
2023-04-17T18:37:51.543Z,12.05
2023-04-17T18:40:18.656Z,12.57
2023-04-17T18:42:45.496Z,12.18
2023-04-17T18:45:15.660Z,12.70
2023-04-17T18:47:42.642Z,11.70
2023-04-17T18:50:10.005Z,13.18
2023-04-17T18:52:47.660Z,13.40
2023-04-17T18:55:17.611Z,13.40
2023-04-17T18:57:44.681Z,12.02
2023-04-17T19:00:12.920Z,13.00
2023-04-17T19:02:40.699Z,13.10
2023-04-17T19:05:08.751Z,13.20
2023-04-17T19:07:35.638Z,13.15
2023-04-17T19:10:02.446Z,13.63
2023-04-17T19:12:30.519Z,12.55
2023-04-17T19:14:57.316Z,12.13
2023-04-17T19:17:25.449Z,13.07
2023-04-17T19:19:52.320Z,13.15
2023-04-17T19:22:19.754Z,18.42
2023-04-17T19:24:50.053Z,15.57
2023-04-17T19:27:17.420Z,14.30
2023-04-17T19:29:44.385Z,12.77
2023-04-17T19:32:12.208Z,15.15
2023-04-17T19:34:39.354Z,12.88
2023-04-17T19:37:06.266Z,13.10
2023-04-17T19:39:33.022Z,11.85
2023-04-17T19:41:59.831Z,10.13
2023-04-17T19:44:28.020Z,6.22
2023-04-17T19:46:55.538Z,7.00
2023-04-17T19:49:22.475Z,6.70
2023-04-17T19:51:49.432Z,6.03
2023-04-17T19:54:16.248Z,5.82
2023-04-17T19:56:43.048Z,6.18
2023-04-17T19:59:12.516Z,4.65
2023-04-17T20:01:42.928Z,4.35
2023-04-17T20:04:10.930Z,3.97
2023-04-17T20:06:39.414Z,3.53
2023-04-17T20:09:06.624Z,3.30
2023-04-17T20:11:34.452Z,3.30
2023-04-17T20:14:01.280Z,3.65
2023-04-17T20:16:28.227Z,3.40
2023-04-17T20:18:56.648Z,3.58
2023-04-17T20:21:23.910Z,4.70
2023-04-17T20:23:50.974Z,3.65
2023-04-17T20:26:17.803Z,4.68
2023-04-17T20:28:44.791Z,4.28
2023-04-17T20:31:11.715Z,4.40
2023-04-17T20:33:38.709Z,5.00
2023-04-17T20:36:06.029Z,5.57
2023-04-17T20:38:32.890Z,6.25
2023-04-17T20:41:00.213Z,6.43
2023-04-17T20:43:27.061Z,7.50
2023-04-17T20:45:54.347Z,7.40
2023-04-17T20:48:21.887Z,7.70
2023-04-17T20:50:48.835Z,7.85
2023-04-17T20:53:15.871Z,7.25
2023-04-17T20:55:42.745Z,7.35
2023-04-17T20:58:10.254Z,7.93
2023-04-17T21:00:44.543Z,8.18
2023-04-17T21:03:21.726Z,8.60
2023-04-17T21:05:48.710Z,9.07
2023-04-17T21:08:15.571Z,9.88
2023-04-17T21:10:42.457Z,11.38
2023-04-17T21:13:09.484Z,11.00
2023-04-17T21:15:36.290Z,11.27
2023-04-17T21:18:03.308Z,11.60
2023-04-17T21:20:30.322Z,11.35
2023-04-17T21:22:57.263Z,11.13
2023-04-17T21:25:24.165Z,10.25
2023-04-17T21:27:51.171Z,11.02
2023-04-17T21:30:18.117Z,10.88
2023-04-17T21:32:47.130Z,10.52
2023-04-17T21:35:14.007Z,10.65
2023-04-17T21:37:41.400Z,10.65
2023-04-17T21:40:08.879Z,10.52
2023-04-17T21:42:35.690Z,11.07
2023-04-17T21:45:02.661Z,10.50
2023-04-17T21:47:29.543Z,10.70
2023-04-17T21:49:56.585Z,9.80
2023-04-17T21:52:23.469Z,10.80
2023-04-17T21:54:50.352Z,10.50
2023-04-17T21:57:17.282Z,10.32
2023-04-17T21:59:44.072Z,10.93
2023-04-17T22:02:10.874Z,10.35
2023-04-17T22:04:37.701Z,10.27
2023-04-17T22:07:04.608Z,11.02
2023-04-17T22:09:31.609Z,10.75
2023-04-17T22:11:58.785Z,11.55
2023-04-17T22:14:25.683Z,11.77
2023-04-17T22:16:52.867Z,10.80
2023-04-17T22:19:19.795Z,11.73
2023-04-17T22:21:47.092Z,12.07
2023-04-17T22:24:14.150Z,12.00
2023-04-17T22:26:41.120Z,13.50
2023-04-17T22:29:07.872Z,14.90
2023-04-17T22:31:34.793Z,13.63
2023-04-17T22:34:01.606Z,13.52
2023-04-17T22:36:28.705Z,12.45
2023-04-17T22:38:55.822Z,11.55
2023-04-17T22:41:22.726Z,12.57
2023-04-17T22:43:50.177Z,12.07
2023-04-17T22:46:18.112Z,11.70
2023-04-17T22:48:45.116Z,10.93
2023-04-17T22:51:15.051Z,11.45
2023-04-17T22:53:43.097Z,11.18
2023-04-17T22:56:11.795Z,12.30
2023-04-17T22:58:38.700Z,11.48
2023-04-17T23:01:05.593Z,11.88
2023-04-17T23:03:34.637Z,12.35
2023-04-17T23:06:01.609Z,11.85
2023-04-17T23:08:30.304Z,11.52
2023-04-17T23:11:01.052Z,11.90
2023-04-17T23:13:28.287Z,11.88
2023-04-17T23:15:55.253Z,11.25
2023-04-17T23:18:22.131Z,11.68
2023-04-17T23:20:49.085Z,12.05
2023-04-17T23:23:16.019Z,11.80
2023-04-17T23:25:42.923Z,11.18
2023-04-17T23:28:10.060Z,11.43
2023-04-17T23:30:36.824Z,11.75
2023-04-17T23:33:03.715Z,11.50
2023-04-17T23:35:30.781Z,12.18
2023-04-17T23:37:57.575Z,12.75
2023-04-17T23:40:24.489Z,12.50
2023-04-17T23:42:51.250Z,12.05
2023-04-17T23:45:18.063Z,12.25
2023-04-17T23:47:44.896Z,13.15
2023-04-17T23:50:11.960Z,12.23
2023-04-17T23:52:38.937Z,11.52
2023-04-17T23:55:06.440Z,12.65
2023-04-17T23:57:35.440Z,13.23
